sensor_id;sensor_type;location;lat;lon;timestamp;temperature;humidity
23544;DHT22;11950;51.230;4.012;2023-03-01T00:01:14;2.30;99.90
23544;DHT22;11950;51.230;4.012;2023-03-01T00:03:41;2.30;99.90
23544;DHT22;11950;51.230;4.012;2023-03-01T00:06:08;2.40;99.90
23544;DHT22;11950;51.230;4.012;2023-03-01T00:08:35;2.40;99.90
23544;DHT22;11950;51.230;4.012;2023-03-01T00:11:09;2.40;99.90
23544;DHT22;11950;51.230;4.012;2023-03-01T00:13:36;2.40;99.90
23544;DHT22;11950;51.230;4.012;2023-03-01T00:16:05;2.40;99.90
23544;DHT22;11950;51.230;4.012;2023-03-01T00:18:31;2.40;99.90
23544;DHT22;11950;51.230;4.012;2023-03-01T00:20:58;2.40;99.90
23544;DHT22;11950;51.230;4.012;2023-03-01T00:23:24;2.30;99.90
23544;DHT22;11950;51.230;4.012;2023-03-01T00:25:51;2.30;99.90
23544;DHT22;11950;51.230;4.012;2023-03-01T00:28:18;2.40;99.90
23544;DHT22;11950;51.230;4.012;2023-03-01T00:30:46;2.40;99.90
23544;DHT22;11950;51.230;4.012;2023-03-01T00:33:13;2.40;99.90
23544;DHT22;11950;51.230;4.012;2023-03-01T00:35:39;2.40;99.90
23544;DHT22;11950;51.230;4.012;2023-03-01T00:38:06;2.30;99.90
23544;DHT22;11950;51.230;4.012;2023-03-01T00:40:34;2.30;99.90
23544;DHT22;11950;51.230;4.012;2023-03-01T00:43:01;2.40;99.90
23544;DHT22;11950;51.230;4.012;2023-03-01T00:45:28;2.40;99.90
23544;DHT22;11950;51.230;4.012;2023-03-01T00:47:55;2.30;99.90
23544;DHT22;11950;51.230;4.012;2023-03-01T00:50:21;2.30;99.90
23544;DHT22;11950;51.230;4.012;2023-03-01T00:52:52;2.20;99.90
23544;DHT22;11950;51.230;4.012;2023-03-01T00:55:18;2.10;99.90
23544;DHT22;11950;51.230;4.012;2023-03-01T00:57:45;2.20;99.90
23544;DHT22;11950;51.230;4.012;2023-03-01T01:00:11;2.30;99.90
23544;DHT22;11950;51.230;4.012;2023-03-01T01:02:38;2.30;99.90
23544;DHT22;11950;51.230;4.012;2023-03-01T01:05:04;2.40;99.90
23544;DHT22;11950;51.230;4.012;2023-03-01T01:07:31;2.40;99.90
23544;DHT22;11950;51.230;4.012;2023-03-01T01:09:57;2.40;99.90
23544;DHT22;11950;51.230;4.012;2023-03-01T01:12:23;2.40;99.90
23544;DHT22;11950;51.230;4.012;2023-03-01T01:14:49;2.40;99.90
23544;DHT22;11950;51.230;4.012;2023-03-01T01:17:16;2.30;99.90
23544;DHT22;11950;51.230;4.012;2023-03-01T01:19:42;2.30;99.90
23544;DHT22;11950;51.230;4.012;2023-03-01T01:22:09;2.30;99.90
23544;DHT22;11950;51.230;4.012;2023-03-01T01:24:35;2.30;99.90
23544;DHT22;11950;51.230;4.012;2023-03-01T01:27:02;2.30;99.90
23544;DHT22;11950;51.230;4.012;2023-03-01T01:29:28;2.30;99.90
23544;DHT22;11950;51.230;4.012;2023-03-01T01:31:54;2.30;99.90
23544;DHT22;11950;51.230;4.012;2023-03-01T01:34:22;2.30;99.90
23544;DHT22;11950;51.230;4.012;2023-03-01T01:36:49;2.30;99.90
23544;DHT22;11950;51.230;4.012;2023-03-01T01:39:16;2.20;99.90
23544;DHT22;11950;51.230;4.012;2023-03-01T01:41:42;2.20;99.90
23544;DHT22;11950;51.230;4.012;2023-03-01T01:49:40;2.20;99.90
23544;DHT22;11950;51.230;4.012;2023-03-01T01:52:22;2.10;99.90
23544;DHT22;11950;51.230;4.012;2023-03-01T01:54:57;2.10;99.90
23544;DHT22;11950;51.230;4.012;2023-03-01T01:57:30;2.10;99.90
23544;DHT22;11950;51.230;4.012;2023-03-01T02:00:03;2.10;99.90
23544;DHT22;11950;51.230;4.012;2023-03-01T02:02:39;2.00;99.90
23544;DHT22;11950;51.230;4.012;2023-03-01T02:05:22;2.00;99.90
23544;DHT22;11950;51.230;4.012;2023-03-01T02:07:50;2.00;99.90
23544;DHT22;11950;51.230;4.012;2023-03-01T02:10:21;2.00;99.90
23544;DHT22;11950;51.230;4.012;2023-03-01T02:12:49;1.90;99.90
23544;DHT22;11950;51.230;4.012;2023-03-01T02:15:15;1.90;99.90
23544;DHT22;11950;51.230;4.012;2023-03-01T02:17:42;1.90;99.90
23544;DHT22;11950;51.230;4.012;2023-03-01T02:20:16;1.90;99.90
23544;DHT22;11950;51.230;4.012;2023-03-01T02:22:47;2.00;99.90
23544;DHT22;11950;51.230;4.012;2023-03-01T02:30:30;1.80;99.90
23544;DHT22;11950;51.230;4.012;2023-03-01T02:32:57;1.80;99.90
23544;DHT22;11950;51.230;4.012;2023-03-01T02:35:37;1.80;99.90
23544;DHT22;11950;51.230;4.012;2023-03-01T02:38:07;1.90;99.90
23544;DHT22;11950;51.230;4.012;2023-03-01T02:40:36;1.80;99.90
23544;DHT22;11950;51.230;4.012;2023-03-01T02:43:06;1.80;99.90
23544;DHT22;11950;51.230;4.012;2023-03-01T02:45:34;1.80;99.90
23544;DHT22;11950;51.230;4.012;2023-03-01T02:48:00;1.80;99.90
23544;DHT22;11950;51.230;4.012;2023-03-01T02:56:14;1.90;99.90
23544;DHT22;11950;51.230;4.012;2023-03-01T02:58:41;1.80;99.90
23544;DHT22;11950;51.230;4.012;2023-03-01T03:01:12;1.80;99.90
23544;DHT22;11950;51.230;4.012;2023-03-01T03:03:41;1.80;99.90
23544;DHT22;11950;51.230;4.012;2023-03-01T03:06:08;1.70;99.90
23544;DHT22;11950;51.230;4.012;2023-03-01T03:08:35;1.60;99.90
23544;DHT22;11950;51.230;4.012;2023-03-01T03:11:02;1.60;99.90
23544;DHT22;11950;51.230;4.012;2023-03-01T03:13:28;1.70;99.90
23544;DHT22;11950;51.230;4.012;2023-03-01T03:15:56;1.70;99.90
23544;DHT22;11950;51.230;4.012;2023-03-01T03:18:23;1.60;99.90
23544;DHT22;11950;51.230;4.012;2023-03-01T03:20:52;1.60;99.90
23544;DHT22;11950;51.230;4.012;2023-03-01T03:23:20;1.60;99.90
23544;DHT22;11950;51.230;4.012;2023-03-01T03:25:49;1.60;99.90
23544;DHT22;11950;51.230;4.012;2023-03-01T03:28:15;1.60;99.90
23544;DHT22;11950;51.230;4.012;2023-03-01T03:30:42;1.60;99.90
23544;DHT22;11950;51.230;4.012;2023-03-01T03:33:10;1.60;99.90
23544;DHT22;11950;51.230;4.012;2023-03-01T03:35:45;1.60;99.90
23544;DHT22;11950;51.230;4.012;2023-03-01T03:38:14;1.50;99.90
23544;DHT22;11950;51.230;4.012;2023-03-01T03:40:46;1.60;99.90
23544;DHT22;11950;51.230;4.012;2023-03-01T03:43:16;1.50;99.90
23544;DHT22;11950;51.230;4.012;2023-03-01T03:45:45;1.50;99.90
23544;DHT22;11950;51.230;4.012;2023-03-01T03:48:11;1.50;99.90
23544;DHT22;11950;51.230;4.012;2023-03-01T03:50:39;1.50;99.90
23544;DHT22;11950;51.230;4.012;2023-03-01T03:53:12;1.60;99.90
23544;DHT22;11950;51.230;4.012;2023-03-01T03:55:39;1.60;99.90
23544;DHT22;11950;51.230;4.012;2023-03-01T03:58:07;1.60;99.90
23544;DHT22;11950;51.230;4.012;2023-03-01T04:00:35;1.60;99.90
23544;DHT22;11950;51.230;4.012;2023-03-01T04:03:02;1.60;99.90
23544;DHT22;11950;51.230;4.012;2023-03-01T04:05:29;1.60;99.90
23544;DHT22;11950;51.230;4.012;2023-03-01T04:07:56;1.60;99.90
23544;DHT22;11950;51.230;4.012;2023-03-01T04:10:34;1.60;99.90
23544;DHT22;11950;51.230;4.012;2023-03-01T04:13:01;1.60;99.90
23544;DHT22;11950;51.230;4.012;2023-03-01T04:15:27;1.60;99.90
23544;DHT22;11950;51.230;4.012;2023-03-01T04:17:54;1.50;99.90
23544;DHT22;11950;51.230;4.012;2023-03-01T04:20:23;1.40;99.90
23544;DHT22;11950;51.230;4.012;2023-03-01T04:23:08;1.40;99.90
23544;DHT22;11950;51.230;4.012;2023-03-01T04:25:57;1.30;99.90
23544;DHT22;11950;51.230;4.012;2023-03-01T04:28:34;1.30;99.90
23544;DHT22;11950;51.230;4.012;2023-03-01T04:31:04;1.40;99.90
23544;DHT22;11950;51.230;4.012;2023-03-01T04:33:43;1.40;99.90
23544;DHT22;11950;51.230;4.012;2023-03-01T04:36:11;1.40;99.90
23544;DHT22;11950;51.230;4.012;2023-03-01T04:38:38;1.40;99.90
23544;DHT22;11950;51.230;4.012;2023-03-01T04:41:07;1.30;99.90
23544;DHT22;11950;51.230;4.012;2023-03-01T04:43:34;1.30;99.90
23544;DHT22;11950;51.230;4.012;2023-03-01T04:46:05;1.20;99.90
23544;DHT22;11950;51.230;4.012;2023-03-01T04:48:34;1.20;99.90
23544;DHT22;11950;51.230;4.012;2023-03-01T04:51:01;1.20;99.90
23544;DHT22;11950;51.230;4.012;2023-03-01T04:53:27;1.20;99.90
23544;DHT22;11950;51.230;4.012;2023-03-01T04:55:55;1.20;99.90
23544;DHT22;11950;51.230;4.012;2023-03-01T04:58:26;1.20;99.90
23544;DHT22;11950;51.230;4.012;2023-03-01T05:00:53;1.20;99.90
23544;DHT22;11950;51.230;4.012;2023-03-01T05:03:20;1.20;99.90
23544;DHT22;11950;51.230;4.012;2023-03-01T05:05:48;1.10;99.90
23544;DHT22;11950;51.230;4.012;2023-03-01T05:08:15;1.20;99.90
23544;DHT22;11950;51.230;4.012;2023-03-01T05:10:54;1.20;99.90
23544;DHT22;11950;51.230;4.012;2023-03-01T05:13:21;1.10;99.90
23544;DHT22;11950;51.230;4.012;2023-03-01T05:15:55;1.10;99.90
23544;DHT22;11950;51.230;4.012;2023-03-01T05:18:23;1.10;99.90
23544;DHT22;11950;51.230;4.012;2023-03-01T05:20:56;1.00;99.90
23544;DHT22;11950;51.230;4.012;2023-03-01T05:23:27;0.90;99.90
23544;DHT22;11950;51.230;4.012;2023-03-01T05:25:53;0.90;99.90
23544;DHT22;11950;51.230;4.012;2023-03-01T05:28:20;1.00;99.90
23544;DHT22;11950;51.230;4.012;2023-03-01T05:30:47;1.00;99.90
23544;DHT22;11950;51.230;4.012;2023-03-01T05:33:13;1.00;99.90
23544;DHT22;11950;51.230;4.012;2023-03-01T05:35:41;1.10;99.90
23544;DHT22;11950;51.230;4.012;2023-03-01T05:38:09;1.00;99.90
23544;DHT22;11950;51.230;4.012;2023-03-01T05:40:35;1.00;99.90
23544;DHT22;11950;51.230;4.012;2023-03-01T05:43:01;1.00;99.90
23544;DHT22;11950;51.230;4.012;2023-03-01T05:45:31;1.10;99.90
23544;DHT22;11950;51.230;4.012;2023-03-01T05:47:58;1.10;99.90
23544;DHT22;11950;51.230;4.012;2023-03-01T05:50:27;1.10;99.90
23544;DHT22;11950;51.230;4.012;2023-03-01T05:53:11;1.00;99.90
23544;DHT22;11950;51.230;4.012;2023-03-01T05:55:40;1.10;99.90
23544;DHT22;11950;51.230;4.012;2023-03-01T05:58:10;1.00;99.90
23544;DHT22;11950;51.230;4.012;2023-03-01T06:00:37;1.00;99.90
23544;DHT22;11950;51.230;4.012;2023-03-01T06:03:03;0.90;99.90
23544;DHT22;11950;51.230;4.012;2023-03-01T06:05:29;0.90;99.90
23544;DHT22;11950;51.230;4.012;2023-03-01T06:07:59;0.90;99.90
23544;DHT22;11950;51.230;4.012;2023-03-01T06:10:25;0.90;99.90
23544;DHT22;11950;51.230;4.012;2023-03-01T06:12:52;1.00;99.90
23544;DHT22;11950;51.230;4.012;2023-03-01T06:15:19;1.00;99.90
23544;DHT22;11950;51.230;4.012;2023-03-01T06:17:46;1.10;99.90
23544;DHT22;11950;51.230;4.012;2023-03-01T06:20:13;1.20;99.90
23544;DHT22;11950;51.230;4.012;2023-03-01T06:22:41;1.10;99.90
23544;DHT22;11950;51.230;4.012;2023-03-01T06:25:08;1.20;99.90
23544;DHT22;11950;51.230;4.012;2023-03-01T06:27:35;1.20;99.90
23544;DHT22;11950;51.230;4.012;2023-03-01T06:30:02;1.20;99.90
23544;DHT22;11950;51.230;4.012;2023-03-01T06:32:29;1.10;99.90
23544;DHT22;11950;51.230;4.012;2023-03-01T06:34:56;1.20;99.90
23544;DHT22;11950;51.230;4.012;2023-03-01T06:37:22;1.10;99.90
23544;DHT22;11950;51.230;4.012;2023-03-01T06:39:48;1.10;99.90
23544;DHT22;11950;51.230;4.012;2023-03-01T06:42:15;1.10;99.90
23544;DHT22;11950;51.230;4.012;2023-03-01T06:44:41;1.10;99.90
23544;DHT22;11950;51.230;4.012;2023-03-01T06:47:07;1.00;99.90
23544;DHT22;11950;51.230;4.012;2023-03-01T06:49:34;1.00;99.90
23544;DHT22;11950;51.230;4.012;2023-03-01T06:55:59;1.00;99.90
23544;DHT22;11950;51.230;4.012;2023-03-01T06:58:26;1.00;99.90
23544;DHT22;11950;51.230;4.012;2023-03-01T07:00:52;1.00;99.90
23544;DHT22;11950;51.230;4.012;2023-03-01T07:03:19;1.00;99.90
23544;DHT22;11950;51.230;4.012;2023-03-01T07:05:45;1.10;99.90
23544;DHT22;11950;51.230;4.012;2023-03-01T07:08:14;1.10;99.90
23544;DHT22;11950;51.230;4.012;2023-03-01T07:10:40;1.30;99.90
23544;DHT22;11950;51.230;4.012;2023-03-01T07:13:06;1.40;99.90
23544;DHT22;11950;51.230;4.012;2023-03-01T07:15:33;1.80;99.90
23544;DHT22;11950;51.230;4.012;2023-03-01T07:17:59;2.10;99.90
23544;DHT22;11950;51.230;4.012;2023-03-01T07:20:25;2.40;99.90
23544;DHT22;11950;51.230;4.012;2023-03-01T07:22:52;2.80;99.90
23544;DHT22;11950;51.230;4.012;2023-03-01T07:25:19;3.10;99.90
23544;DHT22;11950;51.230;4.012;2023-03-01T07:27:51;3.30;99.90
23544;DHT22;11950;51.230;4.012;2023-03-01T07:30:17;3.30;99.90
23544;DHT22;11950;51.230;4.012;2023-03-01T07:32:44;3.20;99.90
23544;DHT22;11950;51.230;4.012;2023-03-01T07:35:11;3.20;99.90
23544;DHT22;11950;51.230;4.012;2023-03-01T07:37:37;3.30;99.90
23544;DHT22;11950;51.230;4.012;2023-03-01T07:40:04;3.40;99.90
23544;DHT22;11950;51.230;4.012;2023-03-01T07:42:31;3.40;99.90
23544;DHT22;11950;51.230;4.012;2023-03-01T07:44:57;3.90;99.90
23544;DHT22;11950;51.230;4.012;2023-03-01T07:47:23;4.60;99.90
23544;DHT22;11950;51.230;4.012;2023-03-01T07:49:49;5.20;99.90
23544;DHT22;11950;51.230;4.012;2023-03-01T07:52:16;5.80;99.90
23544;DHT22;11950;51.230;4.012;2023-03-01T07:59:17;7.40;99.90
23544;DHT22;11950;51.230;4.012;2023-03-01T08:01:43;8.50;99.90
23544;DHT22;11950;51.230;4.012;2023-03-01T08:04:09;8.90;99.90
23544;DHT22;11950;51.230;4.012;2023-03-01T08:06:36;9.20;99.90
23544;DHT22;11950;51.230;4.012;2023-03-01T08:09:03;8.90;99.90
23544;DHT22;11950;51.230;4.012;2023-03-01T08:11:29;8.60;99.90
23544;DHT22;11950;51.230;4.012;2023-03-01T08:13:56;8.30;99.90
23544;DHT22;11950;51.230;4.012;2023-03-01T08:16:23;7.80;99.90
23544;DHT22;11950;51.230;4.012;2023-03-01T08:18:49;7.40;99.90
23544;DHT22;11950;51.230;4.012;2023-03-01T08:21:17;7.20;99.90
23544;DHT22;11950;51.230;4.012;2023-03-01T08:23:43;7.20;99.90
23544;DHT22;11950;51.230;4.012;2023-03-01T08:26:15;7.00;99.90
23544;DHT22;11950;51.230;4.012;2023-03-01T08:28:43;6.90;99.90
23544;DHT22;11950;51.230;4.012;2023-03-01T08:31:28;6.90;99.90
23544;DHT22;11950;51.230;4.012;2023-03-01T08:33:58;7.00;99.90
23544;DHT22;11950;51.230;4.012;2023-03-01T08:36:27;7.00;99.90
23544;DHT22;11950;51.230;4.012;2023-03-01T08:38:54;7.00;99.90
23544;DHT22;11950;51.230;4.012;2023-03-01T08:41:21;6.90;99.90
23544;DHT22;11950;51.230;4.012;2023-03-01T08:43:47;6.90;99.90
23544;DHT22;11950;51.230;4.012;2023-03-01T08:46:13;6.90;99.90
23544;DHT22;11950;51.230;4.012;2023-03-01T08:48:40;6.90;99.90
23544;DHT22;11950;51.230;4.012;2023-03-01T08:51:11;6.90;99.90
23544;DHT22;11950;51.230;4.012;2023-03-01T08:53:37;6.90;99.90
23544;DHT22;11950;51.230;4.012;2023-03-01T08:56:07;6.80;99.90
23544;DHT22;11950;51.230;4.012;2023-03-01T08:58:34;6.80;99.90
23544;DHT22;11950;51.230;4.012;2023-03-01T09:01:00;6.80;99.90
23544;DHT22;11950;51.230;4.012;2023-03-01T09:03:27;6.90;99.90
23544;DHT22;11950;51.230;4.012;2023-03-01T09:06:00;6.90;99.90
23544;DHT22;11950;51.230;4.012;2023-03-01T09:08:26;6.90;99.90
23544;DHT22;11950;51.230;4.012;2023-03-01T09:10:52;6.90;99.90
23544;DHT22;11950;51.230;4.012;2023-03-01T09:13:19;6.90;99.90
23544;DHT22;11950;51.230;4.012;2023-03-01T09:15:45;6.90;99.90
23544;DHT22;11950;51.230;4.012;2023-03-01T09:18:11;6.90;99.90
23544;DHT22;11950;51.230;4.012;2023-03-01T09:20:38;7.00;99.90
23544;DHT22;11950;51.230;4.012;2023-03-01T09:23:04;7.00;99.90
23544;DHT22;11950;51.230;4.012;2023-03-01T09:25:30;7.00;99.90
23544;DHT22;11950;51.230;4.012;2023-03-01T09:27:56;6.90;99.90
23544;DHT22;11950;51.230;4.012;2023-03-01T09:30:23;6.90;99.90
23544;DHT22;11950;51.230;4.012;2023-03-01T09:32:50;7.00;99.90
23544;DHT22;11950;51.230;4.012;2023-03-01T09:35:16;6.90;99.90
23544;DHT22;11950;51.230;4.012;2023-03-01T09:37:42;6.90;99.90
23544;DHT22;11950;51.230;4.012;2023-03-01T09:40:14;6.90;99.90
23544;DHT22;11950;51.230;4.012;2023-03-01T09:43:04;6.90;99.90
23544;DHT22;11950;51.230;4.012;2023-03-01T09:45:35;6.80;99.90
23544;DHT22;11950;51.230;4.012;2023-03-01T09:48:05;6.80;99.90
23544;DHT22;11950;51.230;4.012;2023-03-01T09:50:39;6.90;99.90
23544;DHT22;11950;51.230;4.012;2023-03-01T09:53:11;6.90;99.90
23544;DHT22;11950;51.230;4.012;2023-03-01T09:55:55;7.00;99.90
23544;DHT22;11950;51.230;4.012;2023-03-01T10:01:01;7.10;99.90
23544;DHT22;11950;51.230;4.012;2023-03-01T10:03:36;7.20;99.90
23544;DHT22;11950;51.230;4.012;2023-03-01T10:06:06;7.20;99.90
23544;DHT22;11950;51.230;4.012;2023-03-01T10:11:31;7.30;99.90
23544;DHT22;11950;51.230;4.012;2023-03-01T10:19:42;7.40;99.90
23544;DHT22;11950;51.230;4.012;2023-03-01T10:22:24;7.40;99.90
23544;DHT22;11950;51.230;4.012;2023-03-01T10:24:56;7.40;99.90
23544;DHT22;11950;51.230;4.012;2023-03-01T10:27:29;7.40;99.90
23544;DHT22;11950;51.230;4.012;2023-03-01T10:30:11;7.40;99.90
23544;DHT22;11950;51.230;4.012;2023-03-01T10:32:39;7.40;99.90
23544;DHT22;11950;51.230;4.012;2023-03-01T10:35:28;7.50;99.90
23544;DHT22;11950;51.230;4.012;2023-03-01T10:38:03;7.60;99.90
23544;DHT22;11950;51.230;4.012;2023-03-01T10:40:30;7.70;99.90
23544;DHT22;11950;51.230;4.012;2023-03-01T10:43:03;7.70;99.90
23544;DHT22;11950;51.230;4.012;2023-03-01T10:48:11;7.80;99.90
23544;DHT22;11950;51.230;4.012;2023-03-01T10:50:41;7.90;99.90
23544;DHT22;11950;51.230;4.012;2023-03-01T10:53:21;7.90;99.90
23544;DHT22;11950;51.230;4.012;2023-03-01T10:55:57;7.70;99.90
23544;DHT22;11950;51.230;4.012;2023-03-01T10:58:24;7.70;99.90
23544;DHT22;11950;51.230;4.012;2023-03-01T11:00:53;7.80;99.90
23544;DHT22;11950;51.230;4.012;2023-03-01T11:03:26;7.70;99.90
23544;DHT22;11950;51.230;4.012;2023-03-01T11:05:57;7.80;99.90
23544;DHT22;11950;51.230;4.012;2023-03-01T11:08:34;7.90;99.90
23544;DHT22;11950;51.230;4.012;2023-03-01T11:11:32;7.90;99.80
23544;DHT22;11950;51.230;4.012;2023-03-01T11:14:00;7.90;99.90
23544;DHT22;11950;51.230;4.012;2023-03-01T11:16:38;7.90;99.90
23544;DHT22;11950;51.230;4.012;2023-03-01T11:21:49;8.10;99.40
23544;DHT22;11950;51.230;4.012;2023-03-01T11:24:17;8.20;99.30
23544;DHT22;11950;51.230;4.012;2023-03-01T11:26:52;8.30;99.00
23544;DHT22;11950;51.230;4.012;2023-03-01T11:29:39;8.30;98.80
23544;DHT22;11950;51.230;4.012;2023-03-01T11:32:10;8.30;98.70
23544;DHT22;11950;51.230;4.012;2023-03-01T11:34:59;8.40;98.80
23544;DHT22;11950;51.230;4.012;2023-03-01T11:40:44;8.60;98.40
23544;DHT22;11950;51.230;4.012;2023-03-01T11:43:31;8.70;99.20
23544;DHT22;11950;51.230;4.012;2023-03-01T11:54:17;8.90;98.60
23544;DHT22;11950;51.230;4.012;2023-03-01T12:11:41;9.10;97.20
23544;DHT22;11950;51.230;4.012;2023-03-01T12:20:02;9.20;97.40
23544;DHT22;11950;51.230;4.012;2023-03-01T12:25:55;9.20;96.90
23544;DHT22;11950;51.230;4.012;2023-03-01T12:28:55;9.10;96.80
23544;DHT22;11950;51.230;4.012;2023-03-01T12:42:08;9.30;97.20
23544;DHT22;11950;51.230;4.012;2023-03-01T12:50:19;9.30;96.60
23544;DHT22;11950;51.230;4.012;2023-03-01T12:52:57;9.30;97.10
23544;DHT22;11950;51.230;4.012;2023-03-01T12:55:37;9.30;96.80
23544;DHT22;11950;51.230;4.012;2023-03-01T13:00:49;9.40;97.60
23544;DHT22;11950;51.230;4.012;2023-03-01T13:03:25;9.30;96.90
23544;DHT22;11950;51.230;4.012;2023-03-01T13:11:01;9.40;97.50
23544;DHT22;11950;51.230;4.012;2023-03-01T13:13:29;9.40;97.90
23544;DHT22;11950;51.230;4.012;2023-03-01T13:15:56;9.30;97.80
23544;DHT22;11950;51.230;4.012;2023-03-01T13:18:28;9.40;97.90
23544;DHT22;11950;51.230;4.012;2023-03-01T13:20:56;9.50;98.00
23544;DHT22;11950;51.230;4.012;2023-03-01T13:23:27;9.50;97.40
23544;DHT22;11950;51.230;4.012;2023-03-01T13:28:36;9.50;97.00
23544;DHT22;11950;51.230;4.012;2023-03-01T13:31:06;9.60;96.90
23544;DHT22;11950;51.230;4.012;2023-03-01T13:33:33;9.50;96.70
23544;DHT22;11950;51.230;4.012;2023-03-01T13:36:02;9.40;99.20
23544;DHT22;11950;51.230;4.012;2023-03-01T13:41:07;9.60;97.40
23544;DHT22;11950;51.230;4.012;2023-03-01T13:43:38;9.50;97.20
23544;DHT22;11950;51.230;4.012;2023-03-01T13:46:20;9.60;98.20
23544;DHT22;11950;51.230;4.012;2023-03-01T13:48:53;9.70;98.50
23544;DHT22;11950;51.230;4.012;2023-03-01T13:51:24;9.70;98.00
23544;DHT22;11950;51.230;4.012;2023-03-01T13:53:52;9.80;97.90
23544;DHT22;11950;51.230;4.012;2023-03-01T13:56:25;9.80;97.60
23544;DHT22;11950;51.230;4.012;2023-03-01T13:58:53;9.90;98.20
23544;DHT22;11950;51.230;4.012;2023-03-01T14:03:52;9.70;97.20
23544;DHT22;11950;51.230;4.012;2023-03-01T14:06:23;9.70;97.40
23544;DHT22;11950;51.230;4.012;2023-03-01T14:08:59;9.70;97.50
23544;DHT22;11950;51.230;4.012;2023-03-01T14:19:19;9.80;98.00
23544;DHT22;11950;51.230;4.012;2023-03-01T14:22:14;9.80;97.00
23544;DHT22;11950;51.230;4.012;2023-03-01T14:25:04;9.80;96.10
23544;DHT22;11950;51.230;4.012;2023-03-01T14:27:39;9.80;97.00
23544;DHT22;11950;51.230;4.012;2023-03-01T14:32:59;9.90;97.10
23544;DHT22;11950;51.230;4.012;2023-03-01T14:35:31;10.00;96.20
23544;DHT22;11950;51.230;4.012;2023-03-01T14:37:58;10.00;96.80
23544;DHT22;11950;51.230;4.012;2023-03-01T14:40:34;9.90;96.70
23544;DHT22;11950;51.230;4.012;2023-03-01T14:43:08;9.90;96.30
23544;DHT22;11950;51.230;4.012;2023-03-01T14:45:35;9.80;97.90
23544;DHT22;11950;51.230;4.012;2023-03-01T14:48:04;9.80;96.60
23544;DHT22;11950;51.230;4.012;2023-03-01T14:50:34;9.90;97.30
23544;DHT22;11950;51.230;4.012;2023-03-01T14:53:05;9.90;97.00
23544;DHT22;11950;51.230;4.012;2023-03-01T14:55:34;9.90;96.90
23544;DHT22;11950;51.230;4.012;2023-03-01T14:58:06;9.90;97.50
23544;DHT22;11950;51.230;4.012;2023-03-01T15:00:36;9.90;97.00
23544;DHT22;11950;51.230;4.012;2023-03-01T15:03:52;9.90;96.70
23544;DHT22;11950;51.230;4.012;2023-03-01T15:05:53;9.90;97.30
23544;DHT22;11950;51.230;4.012;2023-03-01T15:08:24;9.90;97.00
23544;DHT22;11950;51.230;4.012;2023-03-01T15:13:25;10.00;96.80
23544;DHT22;11950;51.230;4.012;2023-03-01T15:16:00;9.90;96.80
23544;DHT22;11950;51.230;4.012;2023-03-01T15:18:29;9.90;97.40
23544;DHT22;11950;51.230;4.012;2023-03-01T15:21:09;9.80;96.10
23544;DHT22;11950;51.230;4.012;2023-03-01T15:23:37;9.80;96.40
23544;DHT22;11950;51.230;4.012;2023-03-01T15:26:04;9.80;96.70
23544;DHT22;11950;51.230;4.012;2023-03-01T15:28:33;9.80;96.50
23544;DHT22;11950;51.230;4.012;2023-03-01T15:31:06;9.80;97.20
23544;DHT22;11950;51.230;4.012;2023-03-01T15:33:38;9.80;97.60
23544;DHT22;11950;51.230;4.012;2023-03-01T15:36:29;9.80;97.10
23544;DHT22;11950;51.230;4.012;2023-03-01T15:38:57;9.80;97.30
23544;DHT22;11950;51.230;4.012;2023-03-01T15:41:25;9.80;97.60
23544;DHT22;11950;51.230;4.012;2023-03-01T15:43:53;9.80;96.50
23544;DHT22;11950;51.230;4.012;2023-03-01T15:46:34;9.70;97.30
23544;DHT22;11950;51.230;4.012;2023-03-01T15:49:04;9.70;96.50
23544;DHT22;11950;51.230;4.012;2023-03-01T15:51:37;9.70;96.40
23544;DHT22;11950;51.230;4.012;2023-03-01T15:54:18;9.70;95.90
23544;DHT22;11950;51.230;4.012;2023-03-01T15:56:45;9.60;96.20
23544;DHT22;11950;51.230;4.012;2023-03-01T15:59:13;9.60;95.80
23544;DHT22;11950;51.230;4.012;2023-03-01T16:01:40;9.60;96.30
23544;DHT22;11950;51.230;4.012;2023-03-01T16:04:10;9.50;95.90
23544;DHT22;11950;51.230;4.012;2023-03-01T16:06:38;9.40;95.90
23544;DHT22;11950;51.230;4.012;2023-03-01T16:09:05;9.30;95.20
23544;DHT22;11950;51.230;4.012;2023-03-01T16:11:31;9.30;94.60
23544;DHT22;11950;51.230;4.012;2023-03-01T16:14:00;9.30;95.10
23544;DHT22;11950;51.230;4.012;2023-03-01T16:16:26;9.30;94.90
23544;DHT22;11950;51.230;4.012;2023-03-01T16:18:52;9.30;94.90
23544;DHT22;11950;51.230;4.012;2023-03-01T16:21:24;9.20;95.70
23544;DHT22;11950;51.230;4.012;2023-03-01T16:23:51;9.20;95.20
23544;DHT22;11950;51.230;4.012;2023-03-01T16:26:18;9.20;95.60
23544;DHT22;11950;51.230;4.012;2023-03-01T16:28:45;9.10;95.90
23544;DHT22;11950;51.230;4.012;2023-03-01T16:31:16;9.10;96.20
23544;DHT22;11950;51.230;4.012;2023-03-01T16:33:43;9.00;97.10
23544;DHT22;11950;51.230;4.012;2023-03-01T16:36:17;8.90;96.10
23544;DHT22;11950;51.230;4.012;2023-03-01T16:38:44;8.90;96.50
23544;DHT22;11950;51.230;4.012;2023-03-01T16:41:16;8.80;96.20
23544;DHT22;11950;51.230;4.012;2023-03-01T16:43:43;8.90;96.10
23544;DHT22;11950;51.230;4.012;2023-03-01T16:46:13;8.90;96.50
23544;DHT22;11950;51.230;4.012;2023-03-01T16:48:43;8.90;96.90
23544;DHT22;11950;51.230;4.012;2023-03-01T16:51:10;9.00;97.00
23544;DHT22;11950;51.230;4.012;2023-03-01T16:53:39;9.00;97.00
23544;DHT22;11950;51.230;4.012;2023-03-01T16:56:09;9.00;96.60
23544;DHT22;11950;51.230;4.012;2023-03-01T16:58:37;9.10;96.60
23544;DHT22;11950;51.230;4.012;2023-03-01T17:01:19;9.00;96.50
23544;DHT22;11950;51.230;4.012;2023-03-01T17:03:46;8.90;96.90
23544;DHT22;11950;51.230;4.012;2023-03-01T17:06:16;8.90;97.40
23544;DHT22;11950;51.230;4.012;2023-03-01T17:08:42;8.80;96.80
23544;DHT22;11950;51.230;4.012;2023-03-01T17:11:14;8.70;97.40
23544;DHT22;11950;51.230;4.012;2023-03-01T17:13:42;8.70;97.10
23544;DHT22;11950;51.230;4.012;2023-03-01T17:16:11;8.70;97.30
23544;DHT22;11950;51.230;4.012;2023-03-01T17:18:38;8.70;97.60
23544;DHT22;11950;51.230;4.012;2023-03-01T17:21:05;8.60;96.60
23544;DHT22;11950;51.230;4.012;2023-03-01T17:23:32;8.50;97.40
23544;DHT22;11950;51.230;4.012;2023-03-01T17:25:59;8.40;97.50
23544;DHT22;11950;51.230;4.012;2023-03-01T17:28:27;8.40;98.20
23544;DHT22;11950;51.230;4.012;2023-03-01T17:30:54;8.30;98.20
23544;DHT22;11950;51.230;4.012;2023-03-01T17:33:23;8.20;97.50
23544;DHT22;11950;51.230;4.012;2023-03-01T17:35:50;8.20;97.20
23544;DHT22;11950;51.230;4.012;2023-03-01T17:38:16;8.20;97.90
23544;DHT22;11950;51.230;4.012;2023-03-01T17:40:43;8.20;97.60
23544;DHT22;11950;51.230;4.012;2023-03-01T17:43:14;8.20;97.80
23544;DHT22;11950;51.230;4.012;2023-03-01T17:45:40;8.20;97.70
23544;DHT22;11950;51.230;4.012;2023-03-01T17:48:10;8.10;98.20
23544;DHT22;11950;51.230;4.012;2023-03-01T17:50:37;8.00;98.00
23544;DHT22;11950;51.230;4.012;2023-03-01T17:53:04;7.90;98.70
23544;DHT22;11950;51.230;4.012;2023-03-01T17:55:42;7.90;98.10
23544;DHT22;11950;51.230;4.012;2023-03-01T17:58:11;7.90;97.30
23544;DHT22;11950;51.230;4.012;2023-03-01T18:00:38;7.90;97.50
23544;DHT22;11950;51.230;4.012;2023-03-01T18:03:04;7.80;98.10